Time;durP1;ratioP1;P1;durP2;ratioP2;P2;SDS_P1;SDS_P2;PMS_P1;PMS_P2;Temp;Humidity;BMP_temperature;BMP_pressure;BME280_temperature;BME280_humidity;BME280_pressure;Samples;Min_cycle;Max_cycle;Signal;HPM_P1;HPM_P2
2023/10/13 02:20:14;;;;;;;12.37;5.13;;;;;;;22.19;70.06;96235.53;6295086;22;20022;-84
2023/10/13 02:22:48;;;;;;;9.90;4.80;;;;;;;22.11;72.27;96228.66;6278237;22;20045;-83
2023/10/13 02:25:35;;;;;;;10.90;4.70;;;;;;;22.29;71.33;96238.47;6277095;22;20003;-84
2023/10/13 02:28:29;;;;;;;8.73;5.40;;;;;;;22.29;68.91;96234.97;6278607;22;20007;-84
2023/10/13 02:30:57;;;;;;;8.33;4.63;;;;;;;22.26;73.35;96232.75;6303778;22;20081;-83
2023/10/13 02:33:29;;;;;;;11.43;5.07;;;;;;;22.23;73.39;96228.69;6302629;22;20057;-83
2023/10/13 02:36:04;;;;;;;15.52;6.90;;;;;;;22.27;72.62;96229.06;6277668;22;20057;-83
2023/10/13 02:41:06;;;;;;;10.37;4.90;;;;;;;22.16;69.86;96217.25;6303807;22;20007;-84
2023/10/13 02:43:55;;;;;;;10.13;5.47;;;;;;;22.21;70.88;96225.44;6277575;22;20037;-83
2023/10/13 02:46:23;;;;;;;11.43;4.63;;;;;;;22.12;72.36;96224.09;6303808;22;20376;-84
2023/10/13 02:48:58;;;;;;;10.47;5.10;;;;;;;21.97;73.11;96213.03;6278196;22;20011;-84
2023/10/13 02:51:43;;;;;;;11.20;4.80;;;;;;;22.08;71.87;96213.03;6303547;22;20097;-84
2023/10/13 02:54:12;;;;;;;10.23;4.53;;;;;;;21.59;76.56;96211.56;6302869;22;20007;-84
2023/10/13 02:56:57;;;;;;;10.40;4.87;;;;;;;21.93;74.62;96207.34;6277785;22;19999;-84
2023/10/13 02:59:34;;;;;;;9.40;4.83;;;;;;;21.73;76.49;96201.47;6304170;22;20437;-83
2023/10/13 03:02:17;;;;;;;11.30;4.77;;;;;;;21.63;72.96;96208.22;6277723;22;20011;-85
2023/10/13 03:04:59;;;;;;;10.03;4.57;;;;;;;21.49;73.84;96196.06;6275028;22;20007;-84
2023/10/13 03:07:28;;;;;;;11.47;4.57;;;;;;;21.65;73.95;96191.91;6275278;22;20007;-84
2023/10/13 03:09:57;;;;;;;11.07;4.73;;;;;;;21.41;74.28;96199.91;6273096;22;20431;-83
2023/10/13 03:12:33;;;;;;;10.03;4.60;;;;;;;21.65;71.66;96189.25;6274629;22;20064;-84
2023/10/13 03:17:43;;;;;;;9.67;4.10;;;;;;;21.74;72.84;96187.06;6299922;22;20022;-84
2023/10/13 03:20:16;;;;;;;8.67;4.73;;;;;;;21.68;73.04;96186.13;6302194;22;20014;-84
2023/10/13 03:22:45;;;;;;;9.85;4.72;;;;;;;21.75;75.86;96184.13;6300222;22;20022;-83
2023/10/13 03:28:33;;;;;;;10.27;5.67;;;;;;;22.34;71.37;96193.03;6268003;22;20003;-83
2023/10/13 03:31:01;;;;;;;8.67;4.60;;;;;;;22.25;70.09;96188.28;6300592;22;20113;-83
2023/10/13 03:33:32;;;;;;;10.27;4.50;;;;;;;22.06;70.93;96187.53;6273966;22;20003;-83
2023/10/13 03:36:05;;;;;;;11.97;4.67;;;;;;;21.99;74.34;96184.16;6301761;22;20022;-83
2023/10/13 03:38:36;;;;;;;13.80;5.63;;;;;;;21.81;75.30;96183.22;6299767;22;20003;-83
2023/10/13 03:41:12;;;;;;;12.00;5.07;;;;;;;21.58;75.33;96189.34;6299193;22;19995;-83
2023/10/13 03:43:51;;;;;;;12.97;5.37;;;;;;;21.55;76.42;96189.00;6274302;22;20086;-84
2023/10/13 03:46:21;;;;;;;11.43;5.00;;;;;;;21.95;74.00;96188.34;6300285;22;20007;-84
2023/10/13 03:49:01;;;;;;;10.90;4.43;;;;;;;21.99;73.54;96184.16;6273895;22;20007;-83
2023/10/13 03:51:31;;;;;;;11.57;4.97;;;;;;;21.70;74.90;96192.06;6299945;22;20007;-83
2023/10/13 03:53:58;;;;;;;8.43;4.93;;;;;;;21.57;77.88;96186.91;6299135;22;20007;-83
2023/10/13 03:56:38;;;;;;;12.10;5.20;;;;;;;21.80;76.85;96180.78;6273802;22;20535;-83
2023/10/13 03:59:35;;;;;;;11.43;5.30;;;;;;;21.61;78.31;96180.06;6272814;22;20003;-84
2023/10/13 04:07:13;;;;;;;10.33;5.33;;;;;;;21.65;79.82;96183.88;6299761;22;20431;-83
2023/10/13 04:18:33;;;;;;;10.00;5.20;;;;;;;21.46;84.47;96177.78;6299261;22;20014;-83
2023/10/13 04:21:07;;;;;;;12.47;5.30;;;;;;;21.46;83.99;96179.66;6273557;22;20007;-84
2023/10/13 04:24:08;;;;;;;17.00;5.90;;;;;;;21.44;85.08;96179.09;6299037;22;20011;-83
2023/10/13 04:26:35;;;;;;;17.63;5.80;;;;;;;21.41;84.98;96173.13;6299751;22;20024;-83
2023/10/13 04:29:10;;;;;;;10.10;4.63;;;;;;;21.44;83.52;96171.06;6273964;22;20129;-83
2023/10/13 04:31:59;;;;;;;15.00;5.27;;;;;;;21.38;84.30;96170.09;6271233;22;20029;-83
2023/10/13 04:34:28;;;;;;;14.03;5.53;;;;;;;21.18;85.57;96175.72;6273292;22;20080;-83
2023/10/13 04:37:21;;;;;;;10.40;4.93;;;;;;;21.51;84.54;96179.81;6273272;22;20007;-83
2023/10/13 04:39:43;;;;;;;10.93;5.40;;;;;;;21.41;85.22;96177.69;6298392;22;20056;-82
2023/10/13 04:42:25;;;;;;;14.20;5.47;;;;;;;21.30;85.86;96175.78;6299547;22;20443;-83
2023/10/13 06:49:22;;;;;;;12.52;4.32;;;;;;;24.70;57.09;96138.88;6302549;22;20146;-83
2023/10/13 06:51:49;;;;;;;11.70;4.68;;;;;;;24.92;55.75;96146.94;6302013;22;20079;-88
2023/10/13 09:06:47;;;;;;;9.27;3.80;;;;;;;31.03;35.57;96096.34;5052909;28;20106;-89
2023/10/13 09:44:55;;;;;;;11.82;3.20;;;;;;;33.54;28.64;96074.25;5114788;28;20077;-90
2023/10/13 11:49:36;;;;;;;7.43;3.15;;;;;;;35.00;24.14;95954.94;5069594;28;20055;-86
2023/10/13 11:56:50;;;;;;;11.60;3.40;;;;;;;36.01;24.32;95949.13;5093062;28;20043;-84
2023/10/13 12:10:06;;;;;;;6.82;3.25;;;;;;;34.01;26.02;95935.56;5073834;28;20370;-86
2023/10/13 12:13:39;;;;;;;9.80;3.05;;;;;;;35.19;26.03;95921.84;4992974;28;20074;-86
2023/10/13 12:53:30;;;;;;;6.05;3.40;;;;;;;36.68;24.03;95871.50;4941406;29;19934;-85
2023/10/13 12:56:48;;;;;;;9.35;3.38;;;;;;;37.21;23.81;95872.63;4974509;28;20189;-87
2023/10/13 12:59:53;;;;;;;6.82;2.97;;;;;;;36.76;23.86;95862.44;4965751;29;20035;-88
2023/10/13 13:03:45;;;;;;;9.43;3.58;;;;;;;36.10;24.34;95859.56;4935365;29;20030;-87
2023/10/13 13:32:23;;;;;;;;;;;;;;;35.98;24.13;95826.59;4992783;23;20048;-87
2023/10/13 13:35:06;;;;;;;19.25;5.05;;;;;;;34.57;25.27;95827.41;5012692;28;19917;-87
2023/10/13 13:37:47;;;;;;;9.20;3.53;;;;;;;34.01;23.83;95829.97;5030601;28;20124;-84
2023/10/13 13:40:17;;;;;;;10.98;3.28;;;;;;;34.20;24.05;95815.19;5016913;28;20472;-88
2023/10/13 13:42:45;;;;;;;12.82;3.63;;;;;;;34.16;23.97;95812.31;5013471;28;20018;-87
2023/10/13 13:45:27;;;;;;;14.35;3.50;;;;;;;34.73;23.77;95816.78;5030971;28;20088;-86
2023/10/13 13:47:55;;;;;;;;;;;;;;;34.73;23.82;95809.38;5020460;28;20032;-87
2023/10/13 13:50:26;;;;;;;84.55;9.48;;;;;;;34.08;24.12;95806.84;5014157;28;19975;-92
2023/10/13 13:52:57;;;;;;;222.27;23.98;;;;;;;33.85;25.03;95804.22;5013618;28;20062;-92
2023/10/13 13:55:23;;;;;;;49.17;8.55;;;;;;;33.59;24.77;95806.91;5018104;28;20032;-93
2023/10/13 13:57:50;;;;;;;124.25;13.38;;;;;;;33.61;25.39;95792.97;5019106;28;20416;-95
2023/10/13 14:00:48;;;;;;;52.25;7.60;;;;;;;33.86;25.30;95794.13;5019619;28;20022;-94
2023/10/13 14:03:30;;;;;;;11.65;4.05;;;;;;;34.17;25.19;95774.88;5036752;28;20067;-94
2023/10/13 14:06:01;;;;;;;17.85;4.30;;;;;;;33.99;25.80;95772.13;5016502;28;20021;-93
2023/10/13 14:08:34;;;;;;;10.57;3.47;;;;;;;33.82;25.58;95766.69;5016939;28;20029;-92
2023/10/13 14:13:55;;;;;;;10.68;3.25;;;;;;;33.26;25.90;95765.56;5032590;28;20024;-92
2023/10/13 14:16:22;;;;;;;9.48;3.55;;;;;;;33.39;25.43;95759.19;5016914;28;20032;-93
2023/10/13 14:18:51;;;;;;;12.18;4.88;;;;;;;33.17;26.79;95762.03;5012352;28;20101;-92
2023/10/13 14:21:38;;;;;;;9.45;4.25;;;;;;;33.42;25.83;95761.28;5026854;28;20029;-91
2023/10/13 14:24:12;;;;;;;10.73;3.58;;;;;;;33.23;26.30;95752.56;5015870;28;20469;-92
2023/10/13 14:26:38;;;;;;;10.70;3.45;;;;;;;33.01;26.26;95762.44;5015627;28;20025;-92
2023/10/13 14:29:07;;;;;;;13.52;3.72;;;;;;;33.50;26.22;95760.53;5024159;28;20036;-91
2023/10/13 14:31:37;;;;;;;27.60;4.97;;;;;;;33.22;26.35;95761.88;5015801;28;20540;-90
2023/10/13 14:34:03;;;;;;;25.65;6.25;;;;;;;33.56;27.11;95753.00;5035723;28;20029;-91
2023/10/13 14:36:29;;;;;;;12.90;3.90;;;;;;;33.46;26.25;95750.53;5018658;28;20480;-91
2023/10/13 14:42:36;;;;;;;10.05;3.30;;;;;;;33.02;26.42;95747.69;5021392;28;20059;-93
2023/10/13 14:45:08;;;;;;;14.15;4.07;;;;;;;33.45;27.36;95741.56;5015491;28;20846;-88
2023/10/13 14:47:39;;;;;;;22.67;4.70;;;;;;;33.36;27.33;95738.00;5013721;28;20373;-87
2023/10/13 14:50:05;;;;;;;23.70;5.13;;;;;;;33.35;27.54;95736.41;5029095;28;20028;-87
2023/10/13 14:52:31;;;;;;;15.30;3.63;;;;;;;33.35;27.52;95738.34;5028076;28;20022;-87
2023/10/13 14:55:00;;;;;;;9.15;3.45;;;;;;;33.13;26.40;95734.56;5008414;28;20522;-88
2023/10/13 14:57:26;;;;;;;11.15;3.58;;;;;;;32.98;27.17;95727.66;5014442;28;20056;-88
2023/10/13 14:59:57;;;;;;;6.88;3.25;;;;;;;32.93;27.46;95722.31;5015869;28;20014;-87
2023/10/13 15:02:23;;;;;;;7.80;3.22;;;;;;;32.98;27.23;95721.41;5024814;28;20017;-87
2023/10/13 15:04:49;;;;;;;9.27;3.25;;;;;;;32.93;27.34;95719.59;5031493;28;20093;-87
2023/10/13 15:07:19;;;;;;;6.88;3.05;;;;;;;32.62;27.86;95716.88;5030396;28;20105;-89
2023/10/13 15:09:45;;;;;;;11.70;3.50;;;;;;;32.83;27.66;95709.78;5029870;28;20139;-88
2023/10/13 15:12:11;;;;;;;8.90;3.15;;;;;;;32.51;28.18;95710.91;5020289;28;20469;-89
2023/10/13 15:14:42;;;;;;;9.73;3.88;;;;;;;32.60;27.64;95706.31;5009503;28;20026;-88
2023/10/13 15:17:09;;;;;;;7.68;3.50;;;;;;;32.18;28.02;95699.47;5012747;28;20429;-87
2023/10/13 15:19:42;;;;;;;12.38;3.42;;;;;;;32.42;27.90;95701.06;5012383;28;20071;-93
2023/10/13 15:22:16;;;;;;;11.18;3.20;;;;;;;32.45;28.32;95697.75;5017075;28;20029;-87
2023/10/13 15:24:57;;;;;;;12.70;3.58;;;;;;;32.51;28.12;95704.66;5017776;28;20025;-88
2023/10/13 15:27:23;;;;;;;10.73;3.20;;;;;;;32.59;28.69;95699.25;5013687;28;20036;-87
2023/10/13 15:29:50;;;;;;;10.80;3.55;;;;;;;32.52;28.80;95700.81;5026731;28;20522;-87
2023/10/13 15:35:00;;;;;;;13.85;4.28;;;;;;;32.57;28.88;95693.34;5023252;28;20070;-88
2023/10/13 15:37:27;;;;;;;11.85;3.78;;;;;;;32.53;29.76;95695.06;5013234;28;20381;-87
2023/10/13 15:39:52;;;;;;;13.45;4.45;;;;;;;32.06;30.44;95688.34;5012499;28;20477;-88
2023/10/13 15:42:20;;;;;;;22.35;4.88;;;;;;;31.63;30.66;95692.31;5013615;28;20056;-85
2023/10/13 15:44:46;;;;;;;23.77;5.57;;;;;;;31.95;30.42;95690.50;5025715;28;20107;-86
2023/10/13 15:47:12;;;;;;;27.50;5.03;;;;;;;31.51;30.37;95686.63;5026320;28;20450;-87
2023/10/13 15:49:41;;;;;;;23.25;4.68;;;;;;;31.46;30.87;95695.69;5016267;28;20033;-88
2023/10/13 15:52:07;;;;;;;32.30;5.93;;;;;;;31.10;30.91;95687.47;5025469;28;20051;-87
2023/10/13 15:54:35;;;;;;;17.75;5.00;;;;;;;31.21;30.91;95680.72;5016570;28;20093;-87
2023/10/13 15:57:00;;;;;;;15.13;4.25;;;;;;;30.93;31.34;95684.56;5032072;28;20073;-87
2023/10/13 15:59:26;;;;;;;11.43;3.90;;;;;;;30.48;31.63;95682.41;5016822;28;20429;-92
2023/10/13 16:01:57;;;;;;;13.20;3.70;;;;;;;30.53;31.85;95685.03;5018989;28;20029;-89
2023/10/13 16:04:23;;;;;;;11.88;5.15;;;;;;;30.55;31.61;95682.03;5015672;28;20235;-89
2023/10/13 16:06:51;;;;;;;13.30;4.22;;;;;;;30.57;31.91;95679.78;5009379;28;20041;-90
2023/10/13 16:09:23;;;;;;;7.63;3.50;;;;;;;30.50;32.22;95674.75;5011188;28;20025;-90
2023/10/13 16:11:53;;;;;;;11.07;3.92;;;;;;;30.73;31.87;95680.31;5033182;28;20051;-89
2023/10/13 16:14:18;;;;;;;9.60;4.07;;;;;;;30.68;31.79;95677.69;5016160;28;20036;-89
2023/10/13 16:16:52;;;;;;;10.73;5.25;;;;;;;30.34;32.50;95678.06;5016017;28;20029;-89
2023/10/13 16:19:34;;;;;;;14.68;4.07;;;;;;;30.13;32.84;95675.66;5012586;28;20014;-89
2023/10/13 16:22:09;;;;;;;9.85;4.57;;;;;;;29.71;33.59;95676.63;5016177;28;20021;-89
2023/10/13 16:24:35;;;;;;;8.75;3.85;;;;;;;29.66;33.48;95682.94;5016112;28;20156;-89
2023/10/13 16:27:01;;;;;;;11.95;3.95;;;;;;;29.44;34.03;95680.78;5019265;28;20033;-87
2023/10/13 16:29:30;;;;;;;9.20;3.08;;;;;;;29.10;34.24;95678.25;5020374;28;20099;-86
2023/10/13 16:31:57;;;;;;;13.10;3.50;;;;;;;29.17;34.03;95680.59;5022997;28;20095;-86
2023/10/13 16:34:25;;;;;;;12.02;3.03;;;;;;;29.22;34.17;95680.56;5023179;28;20056;-86
2023/10/13 16:37:04;;;;;;;11.48;3.80;;;;;;;29.29;34.16;95672.88;5029629;28;20033;-86
2023/10/13 16:39:30;;;;;;;11.73;3.90;;;;;;;29.57;34.02;95680.03;5015455;28;20021;-87
2023/10/13 16:41:56;;;;;;;9.68;4.45;;;;;;;29.24;34.39;95675.63;5017266;28;20022;-87
2023/10/13 16:44:25;;;;;;;14.65;5.88;;;;;;;29.22;34.72;95686.78;5032138;28;20036;-87
2023/10/13 16:46:51;;;;;;;12.65;7.65;;;;;;;28.90;35.26;95688.22;5024533;28;20502;-87
2023/10/13 16:49:16;;;;;;;12.35;4.80;;;;;;;28.65;35.80;95688.53;5015966;28;20056;-87
2023/10/13 16:51:44;;;;;;;7.85;4.20;;;;;;;28.81;35.56;95678.34;5015016;28;20048;-87
2023/10/13 16:54:09;;;;;;;8.48;2.90;;;;;;;28.50;36.05;95684.06;5017190;28;20021;-88
2023/10/13 16:56:38;;;;;;;13.18;4.40;;;;;;;28.81;35.53;95684.53;5015089;28;20036;-87
2023/10/13 16:59:07;;;;;;;12.93;3.00;;;;;;;28.59;35.81;95682.34;5015298;28;20444;-88
2023/10/13 17:01:32;;;;;;;9.90;3.63;;;;;;;28.36;36.25;95683.91;5014155;28;20639;-88
2023/10/13 17:04:04;;;;;;;15.25;3.50;;;;;;;28.46;36.01;95682.22;5012528;28;20030;-87
2023/10/13 17:06:30;;;;;;;14.85;3.60;;;;;;;28.35;36.58;95682.28;5015075;28;20022;-88
2023/10/13 17:08:55;;;;;;;8.00;3.90;;;;;;;28.14;37.10;95680.88;5016108;28;20041;-88
2023/10/13 17:11:24;;;;;;;10.07;3.40;;;;;;;28.40;36.69;95676.88;5013673;28;20030;-87
2023/10/13 17:13:49;;;;;;;15.00;4.00;;;;;;;28.06;37.31;95671.47;5022233;28;20373;-87
2023/10/13 17:16:21;;;;;;;14.65;3.97;;;;;;;27.91;37.45;95682.44;5015332;28;20033;-87
2023/10/13 17:18:50;;;;;;;8.93;3.63;;;;;;;27.65;38.03;95679.06;5013598;28;20022;-87
2023/10/13 17:21:21;;;;;;;10.07;3.78;;;;;;;27.63;38.16;95679.38;5013688;28;20492;-87
2023/10/13 17:23:51;;;;;;;14.65;3.50;;;;;;;27.35;38.75;95680.88;5014070;28;20034;-87
2023/10/13 17:26:22;;;;;;;9.20;3.35;;;;;;;27.23;38.78;95678.53;5029741;28;20033;-88
2023/10/13 17:28:49;;;;;;;14.98;3.80;;;;;;;27.11;39.72;95675.31;5013060;28;20068;-87
2023/10/13 17:31:15;;;;;;;11.15;3.33;;;;;;;27.46;39.20;95682.47;5010584;28;20040;-87
2023/10/13 17:33:41;;;;;;;8.50;3.15;;;;;;;27.23;39.35;95672.31;5014471;28;20053;-88
2023/10/13 17:36:06;;;;;;;9.57;3.53;;;;;;;27.41;39.24;95668.16;5012908;28;20025;-87
2023/10/13 17:38:39;;;;;;;10.07;3.28;;;;;;;27.52;38.93;95677.00;5042977;28;20021;-85
2023/10/13 17:41:05;;;;;;;6.63;2.88;;;;;;;27.49;38.90;95672.97;5014214;28;20021;-87
2023/10/13 17:43:34;;;;;;;11.02;3.38;;;;;;;27.47;38.80;95680.56;5029669;28;20033;-87
2023/10/13 17:46:07;;;;;;;7.55;3.58;;;;;;;26.95;39.76;95677.28;5013401;28;20024;-87
2023/10/13 17:48:34;;;;;;;9.65;4.05;;;;;;;26.83;39.89;95668.72;5020080;28;20044;-87
2023/10/13 17:51:04;;;;;;;6.72;3.33;;;;;;;27.29;39.75;95665.78;5021403;28;20018;-87
2023/10/13 17:53:34;;;;;;;12.52;3.65;;;;;;;27.30;39.37;95661.19;5015569;28;20121;-87
2023/10/13 17:56:19;;;;;;;10.13;3.58;;;;;;;26.97;39.71;95661.63;5009365;28;20523;-87
2023/10/13 17:58:45;;;;;;;11.20;3.67;;;;;;;26.85;39.75;95657.63;5022178;28;20025;-87
2023/10/13 18:01:19;;;;;;;8.45;3.83;;;;;;;27.01;39.51;95657.28;5012798;28;20029;-88
2023/10/13 18:03:50;;;;;;;11.98;3.90;;;;;;;27.14;39.31;95652.41;5029335;28;20428;-87
2023/10/13 18:06:24;;;;;;;9.93;4.03;;;;;;;27.13;39.32;95659.69;5022968;28;20124;-88
2023/10/13 18:09:02;;;;;;;13.60;3.42;;;;;;;27.11;39.09;95658.31;5029935;28;20056;-87
2023/10/13 18:11:30;;;;;;;12.23;3.95;;;;;;;27.04;39.14;95658.63;5030049;28;20029;-87
2023/10/13 18:13:56;;;;;;;7.57;3.53;;;;;;;27.10;39.37;95662.91;5029152;28;20128;-86
2023/10/13 18:16:26;;;;;;;10.88;3.63;;;;;;;26.66;39.79;95655.56;5030983;28;20108;-87
2023/10/13 18:18:55;;;;;;;12.23;4.32;;;;;;;26.54;39.94;95650.47;5030205;28;20033;-88
2023/10/13 18:21:39;;;;;;;10.05;3.75;;;;;;;26.47;40.13;95658.03;5029885;28;20974;-88
2023/10/13 18:24:08;;;;;;;14.13;3.78;;;;;;;26.45;40.15;95654.75;5019150;28;20021;-87
2023/10/13 18:26:34;;;;;;;8.13;3.70;;;;;;;26.66;39.94;95644.78;5029328;28;20430;-87
2023/10/13 18:29:00;;;;;;;8.30;3.35;;;;;;;26.64;40.13;95646.91;5026187;28;20021;-87
2023/10/13 18:31:27;;;;;;;11.85;4.28;;;;;;;26.34;40.34;95640.50;5026774;28;20480;-87
2023/10/13 18:33:57;;;;;;;16.15;3.95;;;;;;;26.41;40.38;95640.22;5029349;28;20025;-88
2023/10/13 18:36:24;;;;;;;14.70;4.03;;;;;;;26.56;40.20;95625.94;5029998;28;20025;-88
2023/10/13 18:38:51;;;;;;;13.23;4.15;;;;;;;26.52;40.25;95631.03;5028749;28;20099;-87
2023/10/13 18:41:21;;;;;;;9.90;3.25;;;;;;;26.37;40.40;95633.78;5024418;28;20028;-87
2023/10/13 18:43:49;;;;;;;11.80;3.58;;;;;;;26.23;40.84;95636.22;5024419;28;20165;-88
2023/10/13 18:46:16;;;;;;;8.38;3.13;;;;;;;25.96;41.45;95617.69;5030731;28;20036;-86
2023/10/13 18:48:43;;;;;;;6.85;2.70;;;;;;;25.90;41.58;95623.34;5029952;28;20036;-87
2023/10/13 18:51:14;;;;;;;12.07;3.75;;;;;;;25.88;41.52;95620.09;5029425;28;20830;-87
2023/10/13 18:53:41;;;;;;;10.25;3.25;;;;;;;25.84;41.57;95620.66;5029689;28;20087;-86
2023/10/13 18:56:11;;;;;;;9.95;3.42;;;;;;;25.66;42.24;95628.44;5029702;28;20033;-87
2023/10/13 18:58:44;;;;;;;11.20;4.10;;;;;;;25.80;42.23;95621.47;5030570;28;20419;-87
2023/10/13 19:01:17;;;;;;;11.60;4.18;;;;;;;25.70;42.22;95616.06;5030863;28;20061;-88
2023/10/13 19:03:43;;;;;;;8.63;3.25;;;;;;;25.37;42.58;95620.88;5037543;28;20013;-87
2023/10/13 19:06:10;;;;;;;9.35;2.78;;;;;;;25.65;42.00;95614.16;5049337;28;20064;-87
2023/10/13 19:08:36;;;;;;;7.13;3.00;;;;;;;25.57;42.34;95610.13;5044069;28;20037;-88
2023/10/13 19:11:11;;;;;;;10.73;3.80;;;;;;;25.23;42.96;95615.22;5033901;28;20064;-87
2023/10/13 19:13:38;;;;;;;13.95;3.35;;;;;;;25.33;42.66;95617.13;5030271;28;20091;-87
2023/10/13 19:16:16;;;;;;;10.35;3.80;;;;;;;25.29;42.53;95613.34;5029205;28;20037;-88
2023/10/13 19:18:46;;;;;;;8.45;3.60;;;;;;;25.56;42.27;95618.50;5029350;28;20076;-87
2023/10/13 19:21:17;;;;;;;13.48;4.07;;;;;;;25.57;42.27;95615.50;5030449;28;20032;-87
2023/10/13 19:23:53;;;;;;;7.03;3.33;;;;;;;25.40;42.65;95612.28;5029587;28;20013;-87
2023/10/13 19:26:22;;;;;;;8.85;2.95;;;;;;;25.29;42.92;95613.34;5029469;28;20022;-87
2023/10/13 19:28:55;;;;;;;15.43;4.45;;;;;;;25.02;43.06;95617.03;5029632;28;20091;-87
2023/10/13 19:31:24;;;;;;;9.93;3.97;;;;;;;25.38;42.61;95606.34;5027215;28;20477;-88
2023/10/13 19:33:51;;;;;;;7.80;3.83;;;;;;;25.54;42.10;95607.16;5028121;28;20029;-87
2023/10/13 19:36:18;;;;;;;10.35;3.33;;;;;;;25.46;42.29;95607.72;5025841;28;20022;-87
2023/10/13 19:38:44;;;;;;;10.90;3.58;;;;;;;25.45;42.21;95598.81;5024482;28;20018;-88
2023/10/13 19:41:43;;;;;;;8.57;3.00;;;;;;;25.53;41.59;95598.28;5024444;28;20048;-88
2023/10/13 19:44:08;;;;;;;6.65;3.08;;;;;;;25.34;41.34;95589.91;5019179;28;20036;-88
2023/10/13 19:46:36;;;;;;;11.60;3.38;;;;;;;25.48;40.64;95594.78;5028330;28;20029;-87
2023/10/13 19:49:03;;;;;;;7.55;2.85;;;;;;;25.73;39.99;95586.69;5020839;28;20105;-88
2023/10/13 19:51:30;;;;;;;8.25;3.60;;;;;;;25.81;39.58;95588.88;5030290;28;20048;-87
2023/10/13 19:54:03;;;;;;;10.98;3.08;;;;;;;25.84;39.49;95587.53;5028895;28;20025;-88
2023/10/13 19:56:29;;;;;;;7.43;3.47;;;;;;;25.45;39.85;95581.84;5028820;28;20079;-87
2023/10/13 19:58:55;;;;;;;9.32;2.75;;;;;;;25.33;39.43;95582.94;5029262;28;20026;-87
2023/10/13 20:01:26;;;;;;;10.70;3.08;;;;;;;25.27;39.34;95580.50;5028833;28;20026;-88
2023/10/13 20:03:56;;;;;;;7.00;3.33;;;;;;;25.47;38.44;95583.19;5010957;28;20041;-88
2023/10/13 20:06:26;;;;;;;7.78;3.35;;;;;;;25.27;38.80;95589.38;5010026;28;20108;-87
2023/10/13 20:09:08;;;;;;;7.88;3.05;;;;;;;25.48;38.31;95579.44;5015887;28;20196;-88
2023/10/13 20:11:35;;;;;;;9.52;2.95;;;;;;;25.50;38.34;95574.59;5015298;28;20035;-86
2023/10/13 20:14:01;;;;;;;11.02;2.80;;;;;;;25.81;37.78;95574.59;5015708;28;20032;-88
2023/10/13 20:16:29;;;;;;;10.52;3.45;;;;;;;25.08;38.96;95572.94;5031774;28;20025;-88
2023/10/13 20:19:01;;;;;;;9.55;3.00;;;;;;;24.94;39.61;95578.00;5021420;28;20033;-88
2023/10/13 20:21:30;;;;;;;10.05;2.63;;;;;;;24.98;39.58;95578.28;5031455;28;20029;-87
2023/10/13 20:24:01;;;;;;;8.00;3.08;;;;;;;24.97;39.46;95567.78;5036304;28;20061;-87
2023/10/13 20:26:30;;;;;;;7.95;3.03;;;;;;;24.86;39.62;95577.72;5015973;28;20092;-87
2023/10/13 20:29:01;;;;;;;10.02;3.10;;;;;;;24.84;39.63;95577.97;5035105;28;20080;-87
2023/10/13 20:31:26;;;;;;;12.43;3.30;;;;;;;24.99;39.23;95579.91;5017878;28;20049;-87
2023/10/13 20:33:54;;;;;;;7.07;3.15;;;;;;;25.05;38.53;95580.69;5010979;28;20569;-87
2023/10/13 20:36:24;;;;;;;8.57;2.92;;;;;;;25.00;38.76;95575.34;5011055;28;20087;-87
2023/10/13 20:38:52;;;;;;;8.52;3.28;;;;;;;25.19;38.40;95572.97;5028215;28;20017;-87
2023/10/13 20:41:19;;;;;;;10.32;3.28;;;;;;;25.15;38.36;95572.69;5027966;28;20032;-87
2023/10/13 20:43:49;;;;;;;8.77;3.28;;;;;;;25.05;38.40;95572.63;5041165;28;20025;-87
2023/10/13 20:46:18;;;;;;;8.02;2.75;;;;;;;25.06;38.13;95572.38;5011087;28;20025;-88
2023/10/13 20:48:47;;;;;;;6.60;2.75;;;;;;;25.07;37.79;95570.50;5025208;28;20028;-87
2023/10/13 20:51:13;;;;;;;7.35;2.55;;;;;;;24.98;38.06;95567.50;5007352;28;20249;-86
2023/10/13 20:53:43;;;;;;;5.93;2.78;;;;;;;25.09;37.63;95560.28;5027971;28;20040;-85
2023/10/13 20:56:16;;;;;;;5.70;2.50;;;;;;;24.85;38.01;95568.06;5026641;28;20018;-86
2023/10/13 20:58:46;;;;;;;6.35;2.42;;;;;;;24.84;38.21;95567.22;5014067;28;20408;-86
2023/10/13 21:01:12;;;;;;;11.77;3.05;;;;;;;24.92;38.05;95576.66;5011297;28;20493;-87
2023/10/13 21:03:39;;;;;;;7.70;3.08;;;;;;;25.10;37.64;95578.84;5030774;28;20104;-87
2023/10/13 21:06:08;;;;;;;7.03;2.30;;;;;;;24.50;38.40;95574.13;5013675;28;20029;-87
2023/10/13 21:08:37;;;;;;;7.82;2.55;;;;;;;24.63;38.29;95557.50;5013898;28;20028;-86
2023/10/13 21:11:06;;;;;;;6.93;3.13;;;;;;;24.38;38.47;95558.16;5013521;28;20112;-87
2023/10/13 21:13:32;;;;;;;7.82;3.13;;;;;;;24.31;38.43;95555.75;5014322;28;20393;-87
2023/10/13 21:15:59;;;;;;;6.47;2.35;;;;;;;24.58;38.22;95565.53;5013544;28;20029;-87
2023/10/13 21:18:28;;;;;;;6.13;2.70;;;;;;;24.51;37.86;95565.78;5029965;28;20856;-86
2023/10/13 21:21:07;;;;;;;7.93;3.20;;;;;;;24.50;38.14;95558.78;5029576;28;20021;-86
2023/10/13 21:23:34;;;;;;;8.70;3.10;;;;;;;24.64;37.84;95556.41;5014261;28;20424;-86
2023/10/13 21:26:00;;;;;;;11.80;2.90;;;;;;;24.55;37.54;95556.13;5018608;28;20053;-86
2023/10/13 21:28:28;;;;;;;6.93;2.67;;;;;;;24.72;37.64;95561.28;5027914;28;20059;-86
2023/10/13 21:31:04;;;;;;;8.15;2.17;;;;;;;24.66;36.96;95571.22;5029837;28;20038;-86
2023/10/13 21:33:30;;;;;;;4.68;2.50;;;;;;;25.01;36.60;95571.56;5029127;28;20029;-86
2023/10/13 21:35:57;;;;;;;7.50;2.95;;;;;;;24.88;36.70;95571.00;5012288;28;20035;-86
2023/10/13 21:38:22;;;;;;;6.05;3.00;;;;;;;24.76;36.84;95559.69;5013536;28;20025;-87
2023/10/13 21:40:49;;;;;;;8.63;3.00;;;;;;;24.65;36.72;95555.34;5008560;28;20027;-86
2023/10/13 21:43:15;;;;;;;4.50;2.05;;;;;;;24.76;36.53;95564.25;5013184;28;20044;-86
2023/10/13 21:45:45;;;;;;;7.72;2.55;;;;;;;24.67;36.78;95554.00;5005781;28;20037;-86
2023/10/13 21:48:12;;;;;;;7.60;2.45;;;;;;;24.59;36.82;95551.84;5030320;28;20025;-86
2023/10/13 21:50:40;;;;;;;6.28;2.30;;;;;;;24.80;36.66;95559.97;5008967;28;20022;-85
2023/10/13 21:53:07;;;;;;;7.78;2.75;;;;;;;24.70;36.49;95542.72;5011476;28;20647;-86
2023/10/13 21:55:33;;;;;;;11.50;2.72;;;;;;;24.67;36.42;95547.81;5027870;28;20029;-86
2023/10/13 21:57:59;;;;;;;7.50;2.75;;;;;;;24.86;36.54;95553.53;5005132;28;20024;-86
2023/10/13 22:02:55;;;;;;;8.38;3.05;;;;;;;24.66;36.65;95547.00;5029080;28;20029;-86
2023/10/13 22:05:24;;;;;;;6.90;2.65;;;;;;;24.51;36.87;95549.66;5029276;28;20025;-86
2023/10/13 22:07:52;;;;;;;6.72;2.67;;;;;;;24.35;36.92;95540.72;5012936;28;20052;-86
2023/10/13 22:10:18;;;;;;;7.80;2.85;;;;;;;24.55;36.63;95544.56;5009437;28;20057;-86
2023/10/13 22:12:48;;;;;;;6.93;2.40;;;;;;;24.51;36.51;95533.53;5028733;28;20048;-86
2023/10/13 22:15:21;;;;;;;6.82;2.75;;;;;;;24.72;36.39;95537.09;5012125;28;20440;-86
2023/10/13 22:17:53;;;;;;;5.35;2.25;;;;;;;24.43;36.23;95534.03;5014723;28;20030;-85
2023/10/13 22:20:21;;;;;;;5.95;2.60;;;;;;;24.63;36.04;95536.00;5010048;28;20083;-86
2023/10/13 22:22:49;;;;;;;9.68;2.90;;;;;;;24.65;35.55;95536.53;5008173;28;20049;-87
2023/10/13 22:25:15;;;;;;;6.47;2.47;;;;;;;24.71;35.24;95532.75;5008286;28;20495;-86
2023/10/13 22:27:42;;;;;;;6.78;2.58;;;;;;;24.77;34.91;95529.03;5025047;28;20619;-86
2023/10/13 22:30:21;;;;;;;8.57;2.67;;;;;;;24.88;34.43;95529.84;5016617;28;20048;-86
2023/10/13 22:32:48;;;;;;;5.80;2.00;;;;;;;25.04;34.09;95530.66;5009409;28;20034;-86
2023/10/13 22:35:20;;;;;;;6.15;2.50;;;;;;;25.12;33.98;95525.63;5028178;28;20052;-86
2023/10/13 22:37:53;;;;;;;7.57;2.45;;;;;;;25.16;33.81;95532.06;5029267;28;20610;-86
2023/10/13 22:40:20;;;;;;;6.82;2.88;;;;;;;25.41;33.95;95525.06;5012851;28;20051;-86
2023/10/13 22:42:48;;;;;;;5.50;2.33;;;;;;;25.31;33.76;95531.25;5013512;28;20029;-86
2023/10/13 22:45:18;;;;;;;5.18;2.28;;;;;;;25.19;33.91;95530.72;5010814;28;20095;-86
2023/10/13 22:47:50;;;;;;;5.63;2.55;;;;;;;25.29;33.92;95532.63;5008218;28;20037;-86
2023/10/13 22:50:21;;;;;;;8.40;2.60;;;;;;;25.30;33.78;95526.16;5016183;28;20029;-86
2023/10/13 22:52:51;;;;;;;8.65;2.88;;;;;;;25.44;33.48;95527.22;5009547;28;20034;-85
2023/10/13 22:55:19;;;;;;;5.82;2.63;;;;;;;25.38;33.62;95531.78;5010405;28;20037;-85